Time;durP1;ratioP1;P1;durP2;ratioP2;P2;SDS_P1;SDS_P2;PMS_P1;PMS_P2;Temp;Humidity;BMP_temperature;BMP_pressure;BME280_temperature;BME280_humidity;BME280_pressure;Samples;Min_cycle;Max_cycle;Signal;HPM_P1;HPM_P2
2023/10/05 00:01:20;;;;;;;;;;;14.40;99.90;;;;;;4996471;28;19921;-94
2023/10/05 00:03:51;;;;;;;;;;;13.40;99.90;;;;;;4978500;28;19917;-94
2023/10/05 00:06:23;;;;;;;;;;;13.40;99.90;;;;;;4996149;28;19923;-94
2023/10/05 00:08:53;;;;;;;;;;;13.10;99.90;;;;;;4984708;28;19925;-94
2023/10/05 00:11:35;;;;;;;;;;;13.30;99.90;;;;;;5000980;28;19931;-94
2023/10/05 00:14:09;;;;;;;;;;;13.30;99.90;;;;;;5001021;28;20379;-94
2023/10/05 00:16:37;;;;;;;;;;;13.30;99.90;;;;;;4996575;28;20199;-94
2023/10/05 00:19:13;;;;;;;;;;;13.30;99.90;;;;;;4982226;28;19922;-94
2023/10/05 00:21:50;;;;;;;;;;;13.30;99.90;;;;;;4985325;28;20395;-94
2023/10/05 00:24:18;;;;;;;;;;;13.30;99.90;;;;;;4996035;28;20373;-94
2023/10/05 00:26:50;;;;;;;;;;;13.40;99.90;;;;;;4996008;28;20380;-94
2023/10/05 00:29:25;;;;;;;;;;;13.30;99.90;;;;;;4981524;28;20424;-93
2023/10/05 00:31:51;;;;;;;;;;;13.30;99.90;;;;;;4981311;28;19917;-94
2023/10/05 00:36:50;;;;;;;;;;;13.30;99.90;;;;;;4996720;28;20000;-94
2023/10/05 00:39:19;;;;;;;;;;;13.30;99.90;;;;;;4996996;28;19921;-94
2023/10/05 00:41:45;;;;;;;;;;;13.30;99.90;;;;;;5000739;28;19974;-93
2023/10/05 00:44:12;;;;;;;;;;;13.30;99.90;;;;;;4983432;28;19964;-94
2023/10/05 00:46:39;;;;;;;;;;;13.20;99.90;;;;;;4979692;28;19921;-94
2023/10/05 00:49:15;;;;;;;;;;;13.20;99.90;;;;;;4996215;28;20384;-94
2023/10/05 00:51:44;;;;;;;;;;;13.20;99.90;;;;;;4992658;28;19916;-94
2023/10/05 00:54:22;;;;;;;;;;;13.20;99.90;;;;;;4996091;28;20208;-94
2023/10/05 00:56:48;;;;;;;;;;;13.20;99.90;;;;;;4982823;28;19917;-95
2023/10/05 00:59:15;;;;;;;;;;;13.20;99.90;;;;;;4973380;28;19921;-94
2023/10/05 01:04:34;;;;;;;;;;;13.20;99.90;;;;;;4988252;28;19917;-94
2023/10/05 01:07:17;;;;;;;;;;;13.20;99.90;;;;;;4995453;28;20006;-94
2023/10/05 01:15:06;;;;;;;;;;;13.20;99.90;;;;;;5009792;28;20019;-94
2023/10/05 01:17:33;;;;;;;;;;;13.20;99.90;;;;;;4996635;28;19917;-94
2023/10/05 01:20:13;;;;;;;;;;;13.20;99.90;;;;;;4995339;28;20007;-94
2023/10/05 01:22:39;;;;;;;;;;;13.30;99.90;;;;;;5004603;28;19972;-93
2023/10/05 01:25:05;;;;;;;;;;;13.20;99.90;;;;;;4996294;28;19917;-94
2023/10/05 01:27:32;;;;;;;;;;;13.20;99.90;;;;;;4999609;28;19939;-94
2023/10/05 01:29:57;;;;;;;;;;;13.20;99.90;;;;;;4999355;28;19939;-95
2023/10/05 01:32:24;;;;;;;;;;;12.60;99.90;;;;;;4993091;28;19921;-94
2023/10/05 01:34:50;;;;;;;;;;;13.20;99.90;;;;;;4997456;28;20008;-94
2023/10/05 01:37:23;;;;;;;;;;;13.20;99.90;;;;;;4998648;28;19917;-94
2023/10/05 01:39:49;;;;;;;;;;;13.20;99.90;;;;;;4998022;28;19975;-94
2023/10/05 01:42:16;;;;;;;;;;;13.20;99.90;;;;;;4999026;28;19963;-94
2023/10/05 01:44:47;;;;;;;;;;;13.20;99.90;;;;;;4998684;28;19921;-94
2023/10/05 01:47:16;;;;;;;;;;;13.30;99.90;;;;;;4982489;28;20055;-94
2023/10/05 01:49:50;;;;;;;;;;;13.20;99.90;;;;;;5000588;28;20011;-95
2023/10/05 01:52:20;;;;;;;;;;;13.50;99.90;;;;;;5000419;28;19955;-94
2023/10/05 01:54:46;;;;;;;;;;;13.30;99.90;;;;;;4991735;28;20372;-94
2023/10/05 01:57:16;;;;;;;;;;;13.30;99.90;;;;;;4997645;28;19925;-94
2023/10/05 01:59:42;;;;;;;;;;;14.00;99.90;;;;;;4999076;28;20285;-95
2023/10/05 02:02:11;;;;;;;;;;;13.30;99.90;;;;;;4999227;28;19917;-94
2023/10/05 02:04:48;;;;;;;;;;;13.30;99.90;;;;;;4986345;28;19917;-92
2023/10/05 02:07:22;;;;;;;;;;;13.30;99.90;;;;;;4974454;28;19917;-94
2023/10/05 02:13:19;;;;;;;;;;;12.90;99.90;;;;;;4977828;28;20384;-94
2023/10/05 02:15:48;;;;;;;;;;;13.40;99.90;;;;;;5004947;28;19928;-95
2023/10/05 02:18:32;;;;;;;;;;;13.40;99.90;;;;;;5003198;28;19921;-95
2023/10/05 02:21:07;;;;;;;;;;;13.40;99.90;;;;;;4981131;28;20009;-95
2023/10/05 02:23:41;;;;;;;;;;;13.50;99.90;;;;;;5000694;28;19917;-95
2023/10/05 02:26:24;;;;;;;;;;;13.50;99.90;;;;;;4994384;28;19917;-94
2023/10/05 02:28:50;;;;;;;;;;;13.50;99.90;;;;;;4987771;28;19921;-94
2023/10/05 02:31:16;;;;;;;;;;;13.50;99.90;;;;;;5005022;28;19924;-95
2023/10/05 02:33:43;;;;;;;;;;;13.50;99.90;;;;;;4987695;28;19928;-94
2023/10/05 02:36:11;;;;;;;;;;;13.50;99.90;;;;;;4999782;28;20377;-94
2023/10/05 02:38:48;;;;;;;;;;;13.50;99.90;;;;;;5002303;28;19917;-94
2023/10/05 02:41:23;;;;;;;;;;;13.40;99.90;;;;;;4996758;28;19921;-94
2023/10/05 02:43:52;;;;;;;;;;;13.40;99.90;;;;;;5004486;28;19925;-94
2023/10/05 02:46:19;;;;;;;;;;;13.40;99.90;;;;;;4991970;28;19944;-94
2023/10/05 02:48:49;;;;;;;;;;;13.40;99.90;;;;;;5001291;28;19921;-94
2023/10/05 02:51:18;;;;;;;;;;;13.40;99.90;;;;;;5003265;28;19960;-94
2023/10/05 02:53:45;;;;;;;;;;;13.40;99.90;;;;;;4989660;28;19921;-94
2023/10/05 02:56:17;;;;;;;;;;;13.40;99.90;;;;;;4997121;28;19996;-93
2023/10/05 02:58:50;;;;;;;;;;;13.40;99.90;;;;;;4998135;28;19967;-94
2023/10/05 03:01:15;;;;;;;;;;;13.40;99.90;;;;;;4983842;28;19921;-94
2023/10/05 03:03:43;;;;;;;;;;;13.40;99.90;;;;;;4981771;28;19944;-94
2023/10/05 03:06:10;;;;;;;;;;;13.40;99.90;;;;;;4997566;28;19925;-94
2023/10/05 03:08:39;;;;;;;;;;;13.40;99.90;;;;;;5004389;28;20291;-95
2023/10/05 03:11:08;;;;;;;;;;;13.40;99.90;;;;;;4996586;28;20007;-95
2023/10/05 03:13:36;;;;;;;;;;;13.40;99.90;;;;;;4979044;28;19971;-94
2023/10/05 03:16:06;;;;;;;;;;;13.40;99.90;;;;;;4990556;28;19964;-95
2023/10/05 03:18:37;;;;;;;;;;;13.40;99.90;;;;;;4994139;28;20408;-95
2023/10/05 03:21:09;;;;;;;;;;;13.40;99.90;;;;;;5000068;28;20440;-94
2023/10/05 03:23:35;;;;;;;;;;;13.50;99.90;;;;;;5001010;28;19975;-94
2023/10/05 03:26:00;;;;;;;;;;;13.50;99.90;;;;;;5003456;28;19928;-94
2023/10/05 03:28:27;;;;;;;;;;;13.60;99.90;;;;;;4985771;28;19925;-95
2023/10/05 03:30:53;;;;;;;;;;;13.60;99.90;;;;;;4982086;28;19917;-95
2023/10/05 03:33:23;;;;;;;;;;;13.60;99.90;;;;;;4998604;28;19928;-95
2023/10/05 03:35:49;;;;;;;;;;;13.00;99.90;;;;;;4996931;28;19931;-94
2023/10/05 03:38:19;;;;;;;;;;;14.10;99.90;;;;;;4997541;28;20643;-94
2023/10/05 03:40:47;;;;;;;;;;;13.60;99.90;;;;;;4983678;28;19917;-95
2023/10/05 03:43:13;;;;;;;;;;;13.70;99.90;;;;;;4997040;28;19983;-94
2023/10/05 03:45:39;;;;;;;;;;;14.10;99.90;;;;;;4997174;28;19951;-95
2023/10/05 03:48:05;;;;;;;;;;;13.70;99.90;;;;;;4997098;28;19944;-94
2023/10/05 03:50:31;;;;;;;;;;;13.70;99.90;;;;;;4996567;28;19917;-94
2023/10/05 03:52:57;;;;;;;;;;;13.70;99.90;;;;;;4996980;28;20380;-94
2023/10/05 03:55:24;;;;;;;;;;;13.10;99.90;;;;;;4997558;28;19924;-94
2023/10/05 03:57:50;;;;;;;;;;;13.70;99.90;;;;;;4995408;28;19960;-95
2023/10/05 04:02:48;;;;;;;;;;;13.60;99.90;;;;;;5014285;28;19924;-94
2023/10/05 04:05:18;;;;;;;;;;;13.60;99.90;;;;;;4992796;28;19920;-94
2023/10/05 04:07:44;;;;;;;;;;;13.60;99.90;;;;;;4996955;28;20335;-94
2023/10/05 04:10:13;;;;;;;;;;;13.50;99.90;;;;;;4995579;28;19954;-95
2023/10/05 04:12:40;;;;;;;;;;;13.60;99.90;;;;;;4981608;28;19956;-94
2023/10/05 04:15:11;;;;;;;;;;;13.50;99.90;;;;;;4996846;28;20349;-94
2023/10/05 04:17:37;;;;;;;;;;;13.60;99.90;;;;;;4999257;28;19921;-94
2023/10/05 04:20:09;;;;;;;;;;;13.70;99.90;;;;;;4987604;28;19928;-94
2023/10/05 04:22:38;;;;;;;;;;;13.60;99.90;;;;;;4979215;28;19924;-93
2023/10/05 04:25:04;;;;;;;;;;;14.00;99.90;;;;;;4982808;28;19928;-95
2023/10/05 04:27:30;;;;;;;;;;;13.70;99.90;;;;;;4979494;28;19921;-94
2023/10/05 04:29:56;;;;;;;;;;;13.70;99.90;;;;;;4983634;28;20206;-93
2023/10/05 04:32:21;;;;;;;;;;;13.70;99.90;;;;;;4984131;28;20443;-94
2023/10/05 04:34:47;;;;;;;;;;;13.70;99.90;;;;;;4979201;28;19917;-94
2023/10/05 04:37:13;;;;;;;;;;;13.80;99.90;;;;;;4979636;28;19921;-94
2023/10/05 04:39:40;;;;;;;;;;;13.80;99.90;;;;;;4979288;28;19925;-94
2023/10/05 04:42:11;;;;;;;;;;;13.80;99.90;;;;;;4994742;28;20043;-93
2023/10/05 04:44:41;;;;;;;;;;;13.70;99.90;;;;;;4996326;28;19921;-93
2023/10/05 04:47:09;;;;;;;;;;;13.70;99.90;;;;;;4994776;28;20384;-94
2023/10/05 04:49:37;;;;;;;;;;;13.80;99.90;;;;;;4968546;28;19926;-94
2023/10/05 04:52:06;;;;;;;;;;;13.80;99.90;;;;;;4976868;28;19968;-94
2023/10/05 04:54:35;;;;;;;;;;;13.80;99.90;;;;;;4996296;28;19920;-93
2023/10/05 04:57:07;;;;;;;;;;;13.80;99.90;;;;;;4995312;28;19916;-94
2023/10/05 05:02:12;;;;;;;;;;;13.80;99.90;;;;;;5012039;28;20430;-93
2023/10/05 05:04:41;;;;;;;;;;;13.80;99.90;;;;;;4994800;28;19928;-93
2023/10/05 05:07:07;;;;;;;;;;;13.70;99.90;;;;;;4995073;28;20177;-95
2023/10/05 05:09:34;;;;;;;;;;;13.70;99.90;;;;;;4995316;28;19953;-94
2023/10/05 05:12:04;;;;;;;;;;;13.70;99.90;;;;;;5007175;28;19979;-94
2023/10/05 05:14:32;;;;;;;;;;;13.70;99.90;;;;;;5000433;28;19917;-93
2023/10/05 05:17:02;;;;;;;;;;;13.70;99.90;;;;;;4996410;28;19921;-95
2023/10/05 05:19:28;;;;;;;;;;;13.70;99.90;;;;;;5002180;28;19917;-94
2023/10/05 05:21:54;;;;;;;;;;;13.70;99.90;;;;;;5002167;28;20161;-95
2023/10/05 05:24:19;;;;;;;;;;;13.40;99.90;;;;;;5001934;28;19917;-94
2023/10/05 05:26:46;;;;;;;;;;;13.70;99.90;;;;;;4992378;28;19917;-93
2023/10/05 05:29:13;;;;;;;;;;;13.70;99.90;;;;;;4983092;28;19928;-94
2023/10/05 05:31:39;;;;;;;;;;;13.80;99.90;;;;;;4999039;28;19921;-92
2023/10/05 05:34:30;;;;;;;;;;;13.20;99.90;;;;;;4997327;28;20003;-94
2023/10/05 05:36:56;;;;;;;;;;;13.90;99.90;;;;;;4987386;28;20266;-94
2023/10/05 05:39:31;;;;;;;;;;;13.80;99.90;;;;;;4997507;28;19967;-93
2023/10/05 05:42:14;;;;;;;;;;;13.60;99.90;;;;;;5010481;28;19924;-94
2023/10/05 05:44:40;;;;;;;;;;;13.90;99.90;;;;;;4996783;28;19925;-94
2023/10/05 05:47:10;;;;;;;;;;;13.80;99.90;;;;;;4994544;28;19925;-93
2023/10/05 05:49:36;;;;;;;;;;;13.20;99.90;;;;;;4977800;28;19932;-93
2023/10/05 05:52:05;;;;;;;;;;;13.80;99.90;;;;;;5000526;28;19917;-92
2023/10/05 05:54:32;;;;;;;;;;;13.90;99.90;;;;;;4987326;28;19957;-89
2023/10/05 06:00:20;;;;;;;;;;;13.90;99.90;;;;;;4938890;28;19918;-91
2023/10/05 06:02:46;;;;;;;;;;;13.90;99.90;;;;;;4929375;28;20384;-92
2023/10/05 06:05:12;;;;;;;;;;;14.00;99.90;;;;;;4955052;28;19922;-92
2023/10/05 06:07:42;;;;;;;;;;;14.00;99.90;;;;;;4993798;28;20016;-92
2023/10/05 06:10:12;;;;;;;;;;;14.10;99.90;;;;;;4978842;28;19928;-92
2023/10/05 06:12:50;;;;;;;;;;;14.10;99.90;;;;;;4980568;28;19944;-92
2023/10/05 06:15:16;;;;;;;;;;;14.70;99.90;;;;;;4984832;28;19917;-92
2023/10/05 06:17:43;;;;;;;;;;;14.20;99.90;;;;;;4991497;28;19975;-92
2023/10/05 06:20:15;;;;;;;;;;;14.30;99.90;;;;;;4991902;28;20052;-92
2023/10/05 06:22:44;;;;;;;;;;;14.30;99.90;;;;;;4990692;28;19917;-92
2023/10/05 06:25:15;;;;;;;;;;;14.30;99.90;;;;;;4997216;28;20027;-92
2023/10/05 06:27:40;;;;;;;;;;;14.30;99.90;;;;;;4990748;28;19918;-92
2023/10/05 06:30:07;;;;;;;;;;;14.30;99.90;;;;;;4976693;28;19944;-92
2023/10/05 06:32:33;;;;;;;;;;;14.40;99.90;;;;;;4996062;28;19952;-92
2023/10/05 06:34:58;;;;;;;;;;;14.40;99.90;;;;;;4978111;28;19976;-92
2023/10/05 06:37:27;;;;;;;;;;;14.40;99.90;;;;;;4976682;28;19967;-92
2023/10/05 06:39:53;;;;;;;;;;;14.60;99.90;;;;;;4990004;28;19924;-92
2023/10/05 06:42:19;;;;;;;;;;;14.50;99.90;;;;;;4981229;28;20319;-92
2023/10/05 06:44:45;;;;;;;;;;;14.50;99.90;;;;;;4986830;28;20280;-92
2023/10/05 06:47:36;;;;;;;;;;;14.50;99.90;;;;;;4980418;28;19925;-93
2023/10/05 06:50:09;;;;;;;;;;;14.50;99.90;;;;;;4998501;28;19948;-92
2023/10/05 06:52:43;;;;;;;;;;;14.60;99.90;;;;;;4975739;28;20361;-93
2023/10/05 06:55:12;;;;;;;;;;;14.50;99.90;;;;;;4995257;28;19928;-93
2023/10/05 06:57:39;;;;;;;;;;;14.60;99.90;;;;;;4995985;28;20008;-92
2023/10/05 07:00:11;;;;;;;;;;;14.60;99.90;;;;;;4994174;28;19953;-92
2023/10/05 07:02:37;;;;;;;;;;;14.60;99.90;;;;;;4977602;28;19918;-91
2023/10/05 07:05:05;;;;;;;;;;;14.60;99.90;;;;;;4994043;28;19975;-92
2023/10/05 07:07:32;;;;;;;;;;;14.60;99.90;;;;;;4975797;28;20353;-92
2023/10/05 07:09:58;;;;;;;;;;;14.70;99.90;;;;;;4986487;28;19922;-93
2023/10/05 07:12:24;;;;;;;;;;;14.70;99.90;;;;;;4994749;28;19987;-92
2023/10/05 07:14:50;;;;;;;;;;;14.70;99.90;;;;;;4973723;28;20317;-92
2023/10/05 07:17:16;;;;;;;;;;;14.30;99.90;;;;;;4986815;28;19964;-92
2023/10/05 07:19:47;;;;;;;;;;;14.80;99.90;;;;;;4995615;28;19923;-92
2023/10/05 07:22:13;;;;;;;;;;;14.80;99.90;;;;;;5010641;28;19949;-92
2023/10/05 07:24:40;;;;;;;;;;;14.90;99.90;;;;;;4978096;28;19921;-92
2023/10/05 07:27:05;;;;;;;;;;;14.90;99.90;;;;;;5007820;28;19964;-92
2023/10/05 07:29:31;;;;;;;;;;;15.00;99.90;;;;;;4989079;28;19921;-91
2023/10/05 07:31:57;;;;;;;;;;;15.00;99.90;;;;;;4994935;28;19917;-91
2023/10/05 07:34:24;;;;;;;;;;;15.00;99.90;;;;;;4978502;28;20011;-92
2023/10/05 07:36:50;;;;;;;;;;;15.10;99.90;;;;;;4975415;28;20218;-92
2023/10/05 07:39:18;;;;;;;;;;;;;;;;;;4977298;28;19960;-91
2023/10/05 07:41:46;;;;;;;;;;;15.20;99.90;;;;;;4994143;28;19921;-91
2023/10/05 07:44:11;;;;;;;;;;;15.20;99.90;;;;;;4978480;28;19975;-91
2023/10/05 07:46:38;;;;;;;;;;;15.20;99.90;;;;;;4973295;28;19916;-92
2023/10/05 07:49:04;;;;;;;;;;;15.20;99.90;;;;;;4977988;28;20428;-92
2023/10/05 07:51:30;;;;;;;;;;;15.20;99.90;;;;;;4980486;28;19924;-91
2023/10/05 07:53:58;;;;;;;;;;;15.20;99.90;;;;;;4980489;28;20011;-91
2023/10/05 07:56:24;;;;;;;;;;;15.20;99.90;;;;;;4978423;28;19985;-91
2023/10/05 07:58:50;;;;;;;;;;;15.10;99.90;;;;;;4992785;28;20008;-91
2023/10/05 08:01:17;;;;;;;;;;;15.10;99.90;;;;;;4993280;28;19952;-91
2023/10/05 08:03:43;;;;;;;;;;;15.00;99.90;;;;;;4988811;28;20465;-91
2023/10/05 08:06:14;;;;;;;;;;;15.00;99.90;;;;;;4986470;28;19925;-90
2023/10/05 08:08:41;;;;;;;;;;;15.00;99.90;;;;;;4984500;28;19925;-92
2023/10/05 08:11:06;;;;;;;;;;;14.90;99.90;;;;;;4975954;28;19917;-92
2023/10/05 08:13:32;;;;;;;;;;;14.90;99.90;;;;;;4979453;28;19947;-92
2023/10/05 08:15:58;;;;;;;;;;;14.90;99.90;;;;;;4978575;28;19921;-92
2023/10/05 08:18:25;;;;;;;;;;;14.90;99.90;;;;;;4979620;28;19999;-92
2023/10/05 08:20:51;;;;;;;;;;;14.80;99.90;;;;;;4980934;28;19966;-93
2023/10/05 08:23:16;;;;;;;;;;;14.70;99.90;;;;;;4995744;28;20012;-92
2023/10/05 08:25:42;;;;;;;;;;;14.70;99.90;;;;;;4990809;28;19923;-92
2023/10/05 08:28:20;;;;;;;;;;;14.70;99.90;;;;;;4989212;28;19916;-92
2023/10/05 08:31:05;;;;;;;;;;;14.60;99.90;;;;;;4997856;28;20301;-92
2023/10/05 08:33:34;;;;;;;;;;;14.70;99.90;;;;;;4996255;28;20284;-92
2023/10/05 08:36:06;;;;;;;;;;;14.60;99.90;;;;;;4980545;28;19917;-92
2023/10/05 08:38:33;;;;;;;;;;;14.60;99.90;;;;;;4996155;28;19940;-92
2023/10/05 08:41:00;;;;;;;;;;;14.70;99.90;;;;;;4978420;28;20007;-92
2023/10/05 08:43:29;;;;;;;;;;;14.10;99.90;;;;;;4977888;28;20368;-93
2023/10/05 08:46:01;;;;;;;;;;;14.70;99.90;;;;;;4993353;28;19917;-94
2023/10/05 08:48:35;;;;;;;;;;;14.70;99.90;;;;;;4998501;28;20439;-93
2023/10/05 08:51:06;;;;;;;;;;;14.60;99.90;;;;;;5009247;28;19921;-93
2023/10/05 08:53:33;;;;;;;;;;;14.70;99.90;;;;;;4988555;28;20391;-92
2023/10/05 08:55:59;;;;;;;;;;;14.70;99.90;;;;;;4994295;28;19921;-92
2023/10/05 08:58:28;;;;;;;;;;;14.60;99.90;;;;;;4994739;28;19988;-92
2023/10/05 09:00:57;;;;;;;;;;;14.70;99.90;;;;;;4995786;28;19948;-93
2023/10/05 09:03:35;;;;;;;;;;;14.80;99.90;;;;;;4993563;28;20040;-94
2023/10/05 09:06:13;;;;;;;;;;;14.80;99.90;;;;;;4994296;28;19962;-93
2023/10/05 09:08:51;;;;;;;;;;;14.90;99.90;;;;;;4986290;28;19968;-93
2023/10/05 09:11:21;;;;;;;;;;;15.00;99.90;;;;;;4982020;28;19917;-92
2023/10/05 09:13:47;;;;;;;;;;;15.20;99.90;;;;;;4981017;28;20035;-93
2023/10/05 09:16:22;;;;;;;;;;;15.30;99.90;;;;;;4994591;28;20493;-93
2023/10/05 09:18:48;;;;;;;;;;;;;;;;;;4994561;28;19967;-93
2023/10/05 09:21:18;;;;;;;;;;;15.60;99.90;;;;;;4989488;28;19921;-93
2023/10/05 09:23:44;;;;;;;;;;;15.70;99.90;;;;;;4995162;28;19925;-93
2023/10/05 09:26:33;;;;;;;;;;;15.70;99.90;;;;;;4983495;28;19921;-93
2023/10/05 09:29:20;;;;;;;;;;;15.80;99.90;;;;;;4999056;28;20446;-93
2023/10/05 09:31:50;;;;;;;;;;;15.70;99.90;;;;;;4993289;28;20349;-93
2023/10/05 09:34:17;;;;;;;;;;;15.70;99.90;;;;;;4985080;28;20288;-94
2023/10/05 09:36:43;;;;;;;;;;;15.80;99.90;;;;;;4993441;28;19971;-94
2023/10/05 09:39:10;;;;;;;;;;;15.70;99.90;;;;;;4995126;28;20277;-93
2023/10/05 09:41:36;;;;;;;;;;;15.70;99.90;;;;;;4989475;28;19971;-93
2023/10/05 09:44:07;;;;;;;;;;;15.70;99.90;;;;;;4982815;28;20009;-93
2023/10/05 09:46:34;;;;;;;;;;;15.90;99.90;;;;;;4990257;28;19920;-93
2023/10/05 09:49:01;;;;;;;;;;;15.10;99.90;;;;;;4988542;28;19921;-93
2023/10/05 09:51:27;;;;;;;;;;;15.90;99.90;;;;;;4987873;28;19917;-95
2023/10/05 09:53:54;;;;;;;;;;;16.00;99.90;;;;;;4987778;28;19995;-93
2023/10/05 09:56:20;;;;;;;;;;;16.10;99.90;;;;;;4996657;28;20126;-93
2023/10/05 09:58:46;;;;;;;;;;;16.20;99.90;;;;;;4982618;28;19924;-93
2023/10/05 10:01:20;;;;;;;;;;;16.30;99.90;;;;;;4998935;28;20364;-92
2023/10/05 10:03:47;;;;;;;;;;;16.40;99.90;;;;;;4987498;28;19924;-93
2023/10/05 10:06:17;;;;;;;;;;;16.50;99.90;;;;;;5009966;28;19917;-93
2023/10/05 10:08:54;;;;;;;;;;;16.50;99.90;;;;;;5005909;28;19925;-93
2023/10/05 10:11:24;;;;;;;;;;;16.50;99.90;;;;;;4994595;28;20007;-93
2023/10/05 10:13:59;;;;;;;;;;;16.60;99.90;;;;;;4996567;28;19924;-93
2023/10/05 10:16:26;;;;;;;;;;;16.60;99.90;;;;;;4994942;28;20000;-92
2023/10/05 10:19:06;;;;;;;;;;;16.60;99.90;;;;;;4982021;28;20283;-93
2023/10/05 10:21:32;;;;;;;;;;;16.70;99.90;;;;;;4987845;28;19925;-92
2023/10/05 10:24:04;;;;;;;;;;;16.70;99.90;;;;;;4999140;28;19972;-93
2023/10/05 10:26:39;;;;;;;;;;;16.70;99.90;;;;;;4992857;28;19917;-93
2023/10/05 10:29:07;;;;;;;;;;;16.70;99.90;;;;;;5003385;28;19925;-92
2023/10/05 10:31:42;;;;;;;;;;;16.80;99.90;;;;;;4998800;28;20061;-92
2023/10/05 10:34:12;;;;;;;;;;;16.80;99.90;;;;;;4982103;28;20052;-93
2023/10/05 10:36:46;;;;;;;;;;;16.80;99.90;;;;;;5002547;28;19917;-94
2023/10/05 10:39:27;;;;;;;;;;;16.80;99.90;;;;;;4998820;28;19917;-93
2023/10/05 10:42:04;;;;;;;;;;;16.30;99.90;;;;;;4997750;28;19917;-93
2023/10/05 10:47:19;;;;;;;;;;;16.80;99.90;;;;;;5012367;28;19973;-94
2023/10/05 10:50:23;;;;;;;;;;;16.80;99.90;;;;;;5006320;28;20287;-93
2023/10/05 10:52:55;;;;;;;;;;;16.70;99.90;;;;;;4986372;28;19981;-93
2023/10/05 10:55:46;;;;;;;;;;;16.60;99.90;;;;;;4995720;28;19971;-94
2023/10/05 10:58:21;;;;;;;;;;;16.60;99.90;;;;;;4994233;28;19917;-95
2023/10/05 11:00:56;;;;;;;;;;;16.50;99.90;;;;;;4995613;28;20273;-93
2023/10/05 11:03:25;;;;;;;;;;;16.50;99.90;;;;;;4995107;28;19926;-94
2023/10/05 11:06:03;;;;;;;;;;;16.40;99.90;;;;;;5006160;28;19925;-93
2023/10/05 11:08:31;;;;;;;;;;;16.40;99.90;;;;;;4996226;28;19917;-94
2023/10/05 11:11:06;;;;;;;;;;;16.30;99.90;;;;;;4997248;28;19917;-94
2023/10/05 11:13:33;;;;;;;;;;;16.30;99.90;;;;;;4995233;28;19923;-93
2023/10/05 11:15:59;;;;;;;;;;;16.30;99.90;;;;;;4998984;28;19925;-94
2023/10/05 11:18:26;;;;;;;;;;;16.20;99.90;;;;;;4990349;28;19928;-93
2023/10/05 11:20:52;;;;;;;;;;;16.20;99.90;;;;;;4977563;28;19928;-94
2023/10/05 11:23:25;;;;;;;;;;;16.10;99.90;;;;;;4994676;28;19933;-95
2023/10/05 11:28:38;;;;;;;;;;;16.20;99.90;;;;;;5006386;28;19925;-94
2023/10/05 11:31:04;;;;;;;;;;;16.30;99.90;;;;;;4977176;28;19928;-94
2023/10/05 11:33:35;;;;;;;;;;;16.20;99.90;;;;;;4976906;28;19918;-94
2023/10/05 11:36:17;;;;;;;;;;;16.30;99.90;;;;;;4995527;28;20264;-94
2023/10/05 11:38:43;;;;;;;;;;;16.40;99.90;;;;;;4978885;28;19921;-93
2023/10/05 11:41:09;;;;;;;;;;;16.20;99.90;;;;;;4977712;28;19983;-94
2023/10/05 11:43:35;;;;;;;;;;;16.40;99.90;;;;;;4980475;28;20004;-95
2023/10/05 11:46:12;;;;;;;;;;;16.40;99.90;;;;;;4980293;28;19988;-94
2023/10/05 11:48:42;;;;;;;;;;;16.50;99.90;;;;;;5007120;28;19939;-94
2023/10/05 11:51:12;;;;;;;;;;;16.60;99.90;;;;;;4996655;28;19959;-95
2023/10/05 11:53:39;;;;;;;;;;;16.70;99.90;;;;;;4980718;28;19925;-93
2023/10/05 11:56:05;;;;;;;;;;;16.70;99.90;;;;;;4983875;28;19928;-94
2023/10/05 11:58:42;;;;;;;;;;;16.80;99.90;;;;;;4999930;28;19920;-96
2023/10/05 12:01:18;;;;;;;;;;;16.80;99.90;;;;;;4986482;28;19916;-95
2023/10/05 12:03:47;;;;;;;;;;;16.80;99.90;;;;;;4994435;28;19987;-95
2023/10/05 12:06:13;;;;;;;;;;;16.90;99.90;;;;;;4994085;28;19917;-94
2023/10/05 12:09:00;;;;;;;;;;;16.80;99.90;;;;;;4995183;28;19929;-95
2023/10/05 12:11:26;;;;;;;;;;;16.20;99.90;;;;;;4998602;28;19948;-94
2023/10/05 12:13:58;;;;;;;;;;;16.30;99.90;;;;;;4988809;28;19952;-95
2023/10/05 12:16:27;;;;;;;;;;;16.90;99.90;;;;;;4981376;28;19924;-95
2023/10/05 12:18:54;;;;;;;;;;;17.00;99.90;;;;;;4983808;28;19924;-96
2023/10/05 12:21:21;;;;;;;;;;;16.90;99.90;;;;;;4996259;28;19968;-94
2023/10/05 12:23:47;;;;;;;;;;;16.90;99.90;;;;;;4991842;28;19923;-91
2023/10/05 12:26:13;;;;;;;;;;;17.00;99.90;;;;;;4979766;28;19917;-93
2023/10/05 12:28:43;;;;;;;;;;;17.00;99.90;;;;;;4990042;28;19931;-96
2023/10/05 12:31:17;;;;;;;;;;;17.00;99.90;;;;;;4996360;28;19921;-96
2023/10/05 12:33:48;;;;;;;;;;;17.00;99.90;;;;;;4972184;28;20353;-96
2023/10/05 12:36:17;;;;;;;;;;;17.00;99.90;;;;;;4983202;28;19921;-96
2023/10/05 12:38:46;;;;;;;;;;;17.00;99.90;;;;;;5003297;28;19996;-96
2023/10/05 12:41:15;;;;;;;;;;;16.90;99.90;;;;;;4998729;28;20392;-93
2023/10/05 12:43:49;;;;;;;;;;;16.80;99.90;;;;;;5000165;28;19921;-93
2023/10/05 12:46:15;;;;;;;;;;;16.70;99.90;;;;;;4969854;28;19918;-96
2023/10/05 12:48:42;;;;;;;;;;;16.60;99.90;;;;;;4999574;28;19920;-94
2023/10/05 12:51:08;;;;;;;;;;;16.60;99.90;;;;;;4988032;28;20052;-94
2023/10/05 12:53:34;;;;;;;;;;;16.30;99.90;;;;;;4993900;28;19921;-95
2023/10/05 12:56:01;;;;;;;;;;;16.30;99.90;;;;;;4993027;28;19917;-94
2023/10/05 12:58:28;;;;;;;;;;;16.00;99.90;;;;;;4991314;28;20418;-93
2023/10/05 13:00:53;;;;;;;;;;;15.80;99.90;;;;;;4993867;28;20365;-93
2023/10/05 13:03:24;;;;;;;;;;;15.80;99.90;;;;;;4987675;28;19929;-92
2023/10/05 13:05:51;;;;;;;;;;;15.70;99.90;;;;;;5009817;28;19924;-92
2023/10/05 13:08:17;;;;;;;;;;;15.60;99.90;;;;;;4995637;28;19917;-92
2023/10/05 13:10:44;;;;;;;;;;;15.60;99.90;;;;;;4978696;28;19920;-93
2023/10/05 13:13:10;;;;;;;;;;;15.60;99.90;;;;;;5010338;28;19917;-93
2023/10/05 13:15:39;;;;;;;;;;;15.60;99.90;;;;;;4999904;28;19928;-92
2023/10/05 13:18:20;;;;;;;;;;;15.70;99.90;;;;;;4982245;28;19920;-93
2023/10/05 13:20:50;;;;;;;;;;;15.70;99.90;;;;;;4977117;28;20364;-93
2023/10/05 13:23:19;;;;;;;;;;;15.90;99.90;;;;;;4973924;28;20587;-93
2023/10/05 13:25:47;;;;;;;;;;;15.70;99.90;;;;;;4994515;28;19925;-92
2023/10/05 13:28:17;;;;;;;;;;;16.00;99.90;;;;;;4989293;28;19917;-93
2023/10/05 13:30:46;;;;;;;;;;;16.10;99.90;;;;;;5024607;28;20616;-93
2023/10/05 13:33:22;;;;;;;;;;;16.20;99.90;;;;;;4999362;28;20035;-93
2023/10/05 13:35:49;;;;;;;;;;;16.40;99.90;;;;;;4991610;28;19967;-93
2023/10/05 13:38:19;;;;;;;;;;;16.40;99.90;;;;;;5000347;28;19967;-95
2023/10/05 13:40:58;;;;;;;;;;;16.40;99.90;;;;;;5003279;28;19923;-93
2023/10/05 13:43:28;;;;;;;;;;;16.50;99.90;;;;;;4983113;28;19921;-95
2023/10/05 13:46:35;;;;;;;;;;;15.70;99.90;;;;;;4972631;28;19964;-95
2023/10/05 13:49:01;;;;;;;;;;;16.50;99.90;;;;;;4971818;28;19922;-92
2023/10/05 13:54:36;;;;;;;;;;;16.30;99.90;;;;;;5004937;28;20365;-92
2023/10/05 13:57:03;;;;;;;;;;;16.50;99.90;;;;;;4959115;28;19917;-92
2023/10/05 13:59:35;;;;;;;;;;;16.50;99.90;;;;;;4960261;28;19917;-93
2023/10/05 14:02:01;;;;;;;;;;;17.80;99.90;;;;;;4978732;28;19929;-93
2023/10/05 14:04:38;;;;;;;;;;;16.60;99.90;;;;;;4963837;28;20536;-95
2023/10/05 14:07:07;;;;;;;;;;;16.50;99.90;;;;;;4996804;28;19929;-93
2023/10/05 14:09:43;;;;;;;;;;;16.50;99.90;;;;;;4969005;28;19928;-94
2023/10/05 14:12:12;;;;;;;;;;;16.60;99.90;;;;;;4986986;28;19921;-96
2023/10/05 14:14:57;;;;;;;;;;;16.50;99.90;;;;;;4983348;28;19920;-94
2023/10/05 14:17:24;;;;;;;;;;;17.10;99.90;;;;;;4978838;28;20431;-93
2023/10/05 14:19:50;;;;;;;;;;;16.40;99.90;;;;;;4973006;28;20012;-95
2023/10/05 14:22:15;;;;;;;;;;;16.40;99.90;;;;;;4975720;28;20008;-93
2023/10/05 14:24:45;;;;;;;;;;;16.40;99.90;;;;;;4989577;28;19960;-95
2023/10/05 14:27:11;;;;;;;;;;;16.40;99.90;;;;;;4956702;28;19928;-95
2023/10/05 14:29:44;;;;;;;;;;;16.40;99.90;;;;;;4962104;28;19925;-96
2023/10/05 14:32:13;;;;;;;;;;;16.10;99.90;;;;;;4980005;28;19921;-95
2023/10/05 14:34:41;;;;;;;;;;;16.70;99.90;;;;;;4975517;28;19971;-95
2023/10/05 14:37:07;;;;;;;;;;;16.60;99.90;;;;;;4976472;28;20279;-94
2023/10/05 14:39:33;;;;;;;;;;;16.70;99.90;;;;;;4984576;28;19975;-95
2023/10/05 15:13:14;;;;;;;;;;;16.60;99.90;;;;;;4881602;29;19920;-95
2023/10/05 15:15:40;;;;;;;;;;;16.40;99.90;;;;;;4857777;29;19920;-95
2023/10/05 15:18:09;;;;;;;;;;;16.30;99.90;;;;;;4930049;29;19923;-96
2023/10/05 15:30:23;;;;;;;;;;;16.20;99.90;;;;;;4874308;29;19930;-96
2023/10/05 15:32:52;;;;;;;;;;;16.60;99.90;;;;;;4883325;29;20482;-96
2023/10/05 15:35:20;;;;;;;;;;;16.60;99.90;;;;;;4878451;29;19923;-95
2023/10/05 15:37:53;;;;;;;;;;;16.60;99.90;;;;;;4945247;28;20362;-96
2023/10/05 15:40:19;;;;;;;;;;;16.60;99.90;;;;;;4957625;28;20420;-96
2023/10/05 15:42:46;;;;;;;;;;;16.70;99.90;;;;;;4947997;28;19917;-96
2023/10/05 15:45:13;;;;;;;;;;;16.70;99.90;;;;;;4955194;28;19918;-96